Aérodrome :
LOGIN :

S'inscrire | Disclaimer

   EN    FR    IT 

 










Légende :    VFR   VFR Marginal   IFR   IFR Intensif   IFR Très Intensif
Visi : 
Plafond : 
>= 8 km
>= 3000ft
5 à 8 km
1000 à 3000 ft
1500m à 5 km
500 à 1000 ft
800 à 1500m
200 à 500 ft
< 800m
< 200 ft
Symboles :   Orages  Brouillard  Fortes neiges  Fortes précipitations  Vent > 20 kt
SIGMETs :   Divers  Orages  Givrage  Turbulence  Onde Orograph.  Cendres Volcan.






- Altitude de l'aérodrome : 776 ft
- Code IATA : RMS


ETAR - Ramstein Air Base

DERNIER METAR :
  • 141119Z 04010KT 9999 -RA SCT046 BKN070 06/M03 A3037 RMK AO2A SNB15E18RAB18 SLP300 FZRANO $

METARs EXPIRÉS :
  • 141056Z AUTO 07009KT 9999 FEW043 SCT050 SCT070 07/M03 A3037 RMK AO2 SLP299 T00691031 FZRANO $
  • 140956Z 09008KT 9999 FEW036 BKN047 BKN070 06/M02 A3039 RMK AO2A SLP307 T00611018 FZRANO $
  • 140927Z 34008KT 9999 SCT035 BKN055 BKN080 06/M02 A3039 RMK AO2A SLP307 FZRANO $
  • 140856Z AUTO 06006KT 9999 CLR 06/M01 A3040 RMK AO2 SLP310 T00621008 58002 FZRANO $

TAF COR TAF ETAR
Valide du 14 à 10h jusqu'au 15 à 16h UTC


141010Z 1410/1516 04009KT 9999 VCSH FEW035 SCT050 BKN070 620703 QNH3032INS
TEMPO 1411/1417 03010G20KT 9000 -SHRA BKN035 620357 510003
BECMG 1417/1418 02006KT 9999 NSW SCT050 QNH3033INS
BECMG 1506/1507 04009KT 9999 SCT030 BKN050 BKN080 QNH3031INS
TEMPO 1511/1517 06010G20KT 9000 -SHRA 510003 TX09/1415Z TNM03/1503Z



MET'MAP, la Météo Aéronautique d'un coup d'oeil ! - Copyright ORBIFLY Décembre 2007 - Disclaimer

ORBIFLY MET'MAP TEAM :

Programmation & Développement : Alexandra Zaïnal
Sur une idée originale de : Baudouin d'Aumeries
Assistance à la programmation : Marc-Olivier Méhu
Soutien technique & logistique : Manuel Goepfert

Contact : metmap@orbifly.com




SOURCES & CREDITS :

   NOAA